Time;durP1;ratioP1;P1;durP2;ratioP2;P2;SDS_P1;SDS_P2;PMS_P1;PMS_P2;Temp;Humidity;BMP_temperature;BMP_pressure;BME280_temperature;BME280_humidity;BME280_pressure;Samples;Min_cycle;Max_cycle;Signal;HPM_P1;HPM_P2
2023/02/24 00:00:51;;;;;;;10.73;9.73;;;8.60;99.90;;;9.33;100.00;97444.31;5180486;28;20274;-79
2023/02/24 00:03:25;;;;;;;11.18;10.27;;;8.60;99.90;;;9.34;100.00;97450.31;5184356;28;20238;-80
2023/02/24 00:05:58;;;;;;;11.17;10.10;;;8.50;99.90;;;9.33;100.00;97444.31;5182698;28;20210;-80
2023/02/24 00:08:32;;;;;;;11.50;10.50;;;8.60;99.90;;;9.33;100.00;97441.78;5182684;28;20289;-79
2023/02/24 00:11:12;;;;;;;11.80;10.75;;;8.50;99.90;;;9.31;100.00;97450.13;5182747;28;20689;-80
2023/02/24 00:13:46;;;;;;;11.85;10.43;;;8.50;99.90;;;9.29;100.00;97444.94;5181800;28;20309;-80
2023/02/24 00:16:19;;;;;;;11.70;10.50;;;8.50;99.90;;;9.27;100.00;97440.53;5181886;28;20225;-79
2023/02/24 00:18:54;;;;;;;10.95;10.05;;;8.50;99.90;;;9.25;100.00;97433.69;5183453;28;20214;-78
2023/02/24 00:21:29;;;;;;;11.73;10.63;;;8.50;99.90;;;9.24;100.00;97433.59;5178953;28;20202;-80
2023/02/24 00:24:03;;;;;;;11.82;10.63;;;8.50;99.90;;;9.25;100.00;97430.28;5180681;28;20226;-80
2023/02/24 00:26:36;;;;;;;11.07;10.00;;;8.40;99.90;;;9.21;100.00;97428.34;5182714;28;20212;-81
2023/02/24 00:29:12;;;;;;;12.40;11.20;;;8.40;99.90;;;9.20;100.00;97426.59;5180489;28;20214;-80
2023/02/24 00:31:45;;;;;;;11.95;10.90;;;8.40;99.90;;;9.18;100.00;97425.63;5183320;28;20210;-80
2023/02/24 00:34:20;;;;;;;11.90;10.70;;;8.40;99.90;;;9.19;100.00;97427.38;5175625;28;20219;-81
2023/02/24 00:36:53;;;;;;;13.20;11.90;;;8.40;99.90;;;9.19;100.00;97428.25;5180429;28;20765;-78
2023/02/24 00:39:29;;;;;;;12.27;11.13;;;8.40;99.90;;;9.20;100.00;97431.69;5179168;28;20211;-80
2023/02/24 00:42:05;;;;;;;13.37;10.97;;;8.40;99.90;;;9.19;100.00;97429.94;5180257;28;20207;-80
2023/02/24 00:44:41;;;;;;;11.50;10.48;;;8.40;99.90;;;9.20;100.00;97426.59;5184168;28;20233;-79
2023/02/24 00:47:16;;;;;;;10.75;9.85;;;8.40;99.90;;;9.22;100.00;97425.00;5185433;28;20209;-78
2023/02/24 00:49:50;;;;;;;11.30;10.20;;;8.40;99.90;;;9.22;100.00;97420.78;5185107;28;20218;-80
2023/02/24 00:52:26;;;;;;;10.38;9.35;;;8.40;99.90;;;9.23;100.00;97421.66;5177734;28;20214;-79
2023/02/24 00:54:59;;;;;;;10.32;9.32;;;8.40;99.90;;;9.23;100.00;97421.66;5178703;28;20240;-81
2023/02/24 00:57:34;;;;;;;11.10;10.03;;;8.30;99.90;;;9.22;100.00;97420.78;5177769;28;20218;-78
2023/02/24 01:00:12;;;;;;;11.05;9.95;;;8.40;99.90;;;9.21;100.00;97413.03;5181261;28;20205;-79
2023/02/24 01:02:46;;;;;;;11.60;9.98;;;8.30;99.90;;;9.19;100.00;97414.66;5178929;28;20230;-79
2023/02/24 01:05:21;;;;;;;11.30;10.13;;;8.40;99.90;;;9.16;100.00;97411.94;5179046;28;20232;-80
2023/02/24 01:07:54;;;;;;;11.87;10.53;;;8.30;99.90;;;9.17;100.00;97411.13;5183203;28;20654;-79
2023/02/24 01:10:27;;;;;;;10.75;9.77;;;8.30;99.90;;;9.15;100.00;97413.56;5184701;28;21040;-80
2023/02/24 01:13:01;;;;;;;10.70;9.70;;;8.40;99.90;;;9.13;100.00;97407.53;5179730;28;20702;-78
2023/02/24 01:15:34;;;;;;;11.03;9.93;;;8.40;99.90;;;9.15;100.00;97405.91;5179185;28;20587;-77
2023/02/24 01:18:10;;;;;;;10.97;9.90;;;8.40;99.90;;;9.19;100.00;97409.53;5178763;28;20223;-79
2023/02/24 01:20:44;;;;;;;10.33;9.43;;;8.40;99.90;;;9.19;100.00;97410.41;5177733;28;20313;-79
2023/02/24 01:23:17;;;;;;;10.95;9.85;;;8.40;99.90;;;9.21;100.00;97405.38;5181052;28;20213;-80
2023/02/24 01:25:50;;;;;;;12.02;10.25;;;8.50;99.90;;;9.21;100.00;97393.53;5181832;28;20203;-80
2023/02/24 01:28:24;;;;;;;10.88;9.88;;;8.50;99.90;;;9.24;100.00;97395.34;5183742;28;20210;-80
2023/02/24 01:31:01;;;;;;;11.20;10.10;;;8.50;99.90;;;9.27;100.00;97392.09;5181000;28;20229;-78
2023/02/24 01:33:36;;;;;;;10.45;9.55;;;8.50;99.90;;;9.28;100.00;97386.22;5182147;28;20226;-78
2023/02/24 01:36:13;;;;;;;12.23;11.23;;;8.50;99.90;;;9.31;100.00;97384.69;5183323;28;20217;-79
2023/02/24 01:38:48;;;;;;;12.20;10.98;;;8.50;99.90;;;9.31;100.00;97378.72;5178085;28;20230;-79
2023/02/24 01:41:26;;;;;;;12.77;11.57;;;8.60;99.90;;;9.29;100.00;97376.09;5180482;28;20306;-79
2023/02/24 01:44:04;;;;;;;12.30;11.15;;;8.50;99.90;;;9.28;100.00;97374.34;5180206;28;20284;-80
2023/02/24 01:46:40;;;;;;;10.77;9.68;;;8.50;99.90;;;9.29;100.00;97373.53;5181961;28;20246;-80
2023/02/24 01:49:18;;;;;;;10.10;9.13;;;8.50;99.90;;;9.31;100.00;97366.84;5185168;28;20210;-79
2023/02/24 01:51:57;;;;;;;12.48;11.35;;;8.50;99.90;;;9.23;100.00;97365.56;5183128;28;20210;-79
2023/02/24 01:54:34;;;;;;;12.05;10.95;;;8.40;99.90;;;9.19;100.00;97368.75;5181800;28;20230;-79
2023/02/24 01:57:08;;;;;;;13.98;12.57;;;8.40;99.90;;;9.18;100.00;97366.97;5180828;28;20226;-77
2023/02/24 01:59:41;;;;;;;12.40;11.10;;;8.40;99.90;;;9.15;100.00;97366.81;5178669;28;20325;-79
2023/02/24 02:02:16;;;;;;;11.98;10.88;;;8.40;99.90;;;9.15;100.00;97367.69;5180950;28;20217;-79
2023/02/24 02:04:52;;;;;;;11.30;10.20;;;8.40;99.90;;;9.17;100.00;97366.09;5181030;28;20698;-79
2023/02/24 02:07:29;;;;;;;10.73;9.65;;;8.40;99.90;;;9.18;100.00;97357.66;5182387;28;20874;-79
2023/02/24 02:10:03;;;;;;;11.57;10.48;;;8.40;99.90;;;9.21;100.00;97356.94;5179178;28;20210;-79
2023/02/24 02:12:42;;;;;;;11.65;10.45;;;8.40;99.90;;;9.18;100.00;97356.78;5185371;28;20655;-79
2023/02/24 02:15:19;;;;;;;12.80;10.40;;;8.40;99.90;;;9.18;100.00;97357.66;5185763;28;20645;-80
2023/02/24 02:18:02;;;;;;;12.40;11.10;;;8.40;99.90;;;9.23;100.00;97360.47;5183877;28;20225;-79
2023/02/24 02:21:25;;;;;;;12.40;11.17;;;8.40;99.90;;;9.28;100.00;97356.50;5179766;28;20261;-77
2023/02/24 02:24:18;;;;;;;12.47;11.27;;;8.50;99.90;;;9.32;100.00;97353.28;5171506;28;20234;-79
2023/02/24 02:27:20;;;;;;;10.30;9.30;;;8.50;99.90;;;9.43;100.00;97357.28;5179875;28;20202;-77
2023/02/24 02:30:44;;;;;;;10.82;9.73;;;8.40;99.90;;;9.36;100.00;97351.81;5178843;28;20206;-79
2023/02/24 02:33:46;;;;;;;10.87;9.87;;;8.40;99.90;;;9.29;100.00;97350.59;5177483;28;20640;-79
2023/02/24 02:36:26;;;;;;;11.35;10.30;;;8.40;99.90;;;9.28;100.00;97353.94;5171751;28;20746;-78
2023/02/24 02:39:11;;;;;;;10.55;9.65;;;8.40;99.90;;;9.23;100.00;97352.81;5179416;28;20266;-78
2023/02/24 02:41:54;;;;;;;11.53;10.50;;;8.40;99.90;;;9.19;100.00;97346.66;5183418;28;20202;-79
2023/02/24 02:44:38;;;;;;;11.68;10.50;;;8.40;99.90;;;9.16;100.00;97343.97;5173237;28;20235;-79
2023/02/24 02:47:21;;;;;;;12.63;11.43;;;8.40;99.90;;;9.17;100.00;97339.72;5184611;28;20218;-78
2023/02/24 02:50:01;;;;;;;11.43;10.20;;;8.40;99.90;;;9.19;100.00;97338.16;5180066;28;20210;-78
2023/02/24 02:52:41;;;;;;;14.25;11.30;;;8.40;99.90;;;9.20;100.00;97334.78;5179812;28;20206;-77
2023/02/24 02:55:20;;;;;;;13.95;12.65;;;8.40;99.90;;;9.21;100.00;97326.34;5180678;28;20230;-77
2023/02/24 02:57:56;;;;;;;15.30;13.77;;;8.40;99.90;;;9.23;100.00;97334.97;5177285;28;20256;-78
2023/02/24 03:00:40;;;;;;;17.23;15.07;;;8.40;99.90;;;9.25;100.00;97328.28;5179798;28;20201;-78
2023/02/24 03:03:18;;;;;;;16.58;14.95;;;8.50;99.90;;;9.27;100.00;97330.88;5182331;28;20662;-78
2023/02/24 03:05:58;;;;;;;18.48;16.42;;;8.50;99.90;;;9.27;100.00;97325.78;5181823;28;20207;-77
2023/02/24 03:08:36;;;;;;;20.20;18.15;;;8.50;99.90;;;9.29;100.00;97327.63;5181391;28;20595;-79
2023/02/24 03:11:15;;;;;;;22.98;20.65;;;8.50;99.90;;;9.33;100.00;97321.91;5183217;28;20586;-78
2023/02/24 03:13:51;;;;;;;22.50;20.05;;;8.60;99.90;;;9.41;100.00;97327.41;5177807;28;20230;-78
2023/02/24 03:16:26;;;;;;;20.55;18.35;;;8.60;99.90;;;9.43;100.00;97323.25;5178371;28;20249;-77
2023/02/24 03:19:06;;;;;;;17.35;15.63;;;8.60;99.90;;;9.43;100.00;97323.25;5177875;28;20242;-79
2023/02/24 03:21:45;;;;;;;17.80;15.70;;;8.50;99.90;;;9.42;100.00;97316.41;5181392;28;20209;-78
2023/02/24 03:24:19;;;;;;;16.88;14.75;;;8.50;99.90;;;9.39;100.00;97303.50;5179804;28;20824;-76
2023/02/24 03:27:01;;;;;;;16.63;15.00;;;8.50;99.90;;;9.35;100.00;97310.09;5175447;28;20209;-78
2023/02/24 03:29:41;;;;;;;16.90;15.32;;;8.50;99.90;;;9.33;100.00;97301.50;5181405;28;20226;-79
2023/02/24 03:32:21;;;;;;;17.35;15.70;;;8.50;99.90;;;9.33;100.00;97303.16;5178170;28;20709;-78
2023/02/24 03:34:58;;;;;;;14.63;13.13;;;8.50;99.90;;;9.32;100.00;97294.63;5179359;28;20317;-77
2023/02/24 03:37:32;;;;;;;15.60;13.93;;;8.50;99.90;;;9.31;100.00;97297.13;5181770;28;20218;-79
2023/02/24 03:40:10;;;;;;;15.60;14.10;;;8.40;99.90;;;9.26;100.00;97299.41;5171197;28;20223;-78
2023/02/24 03:42:48;;;;;;;16.03;14.53;;;8.40;99.90;;;9.22;100.00;97290.75;5175807;28;20931;-76
2023/02/24 03:45:21;;;;;;;16.75;14.90;;;8.40;99.90;;;9.23;100.00;97289.06;5182486;28;20740;-78
2023/02/24 03:47:55;;;;;;;16.80;15.13;;;8.40;99.90;;;9.23;100.00;97294.16;5176637;28;20195;-77
2023/02/24 03:50:30;;;;;;;17.00;15.20;;;8.40;99.90;;;9.23;100.00;97294.16;5175846;28;20202;-78
2023/02/24 03:53:22;;;;;;;16.40;14.60;;;8.50;99.90;;;9.27;100.00;97290.09;5177966;28;20206;-77
2023/02/24 03:56:05;;;;;;;18.60;16.70;;;8.50;99.90;;;9.29;100.00;97285.97;5177720;28;20784;-77
2023/02/24 03:58:57;;;;;;;18.07;16.37;;;8.50;99.90;;;9.31;100.00;97285.25;5178143;28;20228;-78
2023/02/24 04:01:37;;;;;;;19.73;16.90;;;8.50;99.90;;;9.35;100.00;97289.69;5175707;28;20238;-77
2023/02/24 04:04:19;;;;;;;16.88;15.27;;;8.50;99.90;;;9.35;100.00;97288.81;5178455;28;20233;-76
2023/02/24 04:06:57;;;;;;;18.02;16.33;;;8.50;99.90;;;9.33;100.00;97290.41;5183075;28;20206;-77
2023/02/24 04:09:41;;;;;;;19.77;17.80;;;8.50;99.90;;;9.31;100.00;97287.78;5180502;28;20216;-79
2023/02/24 04:12:18;;;;;;;21.97;19.67;;;8.50;99.90;;;9.35;100.00;97281.16;5179132;28;20674;-79
2023/02/24 04:14:57;;;;;;;20.73;18.65;;;8.60;99.90;;;9.38;100.00;97279.66;5178522;28;20265;-79
2023/02/24 04:17:38;;;;;;;21.30;18.90;;;8.60;99.90;;;9.36;100.00;97280.41;5177122;28;20203;-77
2023/02/24 04:20:19;;;;;;;22.55;20.00;;;8.60;99.90;;;9.31;100.00;97281.81;5179294;28;20276;-78
2023/02/24 04:22:58;;;;;;;22.90;20.60;;;8.50;99.90;;;9.32;100.00;97279.34;5180981;28;20265;-77
2023/02/24 04:25:32;;;;;;;22.83;20.38;;;8.60;99.90;;;9.35;100.00;97274.41;5176701;28;20324;-77
2023/02/24 04:28:07;;;;;;;23.05;20.63;;;8.60;99.90;;;9.40;100.00;97272.97;5178365;28;20221;-77
2023/02/24 04:30:45;;;;;;;24.38;21.55;;;8.60;99.90;;;9.44;100.00;97279.09;5172477;28;20205;-78
2023/02/24 04:33:19;;;;;;;24.95;22.38;;;8.60;99.90;;;9.41;100.00;97272.19;5179766;28;20203;-78
2023/02/24 04:35:53;;;;;;;23.80;21.15;;;8.60;99.90;;;9.43;100.00;97268.03;5179539;28;20210;-78
2023/02/24 04:38:26;;;;;;;23.33;21.05;;;8.60;99.90;;;9.46;100.00;97273.28;5176762;28;20223;-78
2023/02/24 04:41:01;;;;;;;25.58;22.33;;;8.60;99.90;;;9.52;100.00;97266.75;5173096;28;20217;-77
2023/02/24 04:43:35;;;;;;;23.77;21.38;;;8.60;99.90;;;9.49;100.00;97272.56;5177813;28;20245;-78
2023/02/24 04:46:08;;;;;;;23.08;20.75;;;8.60;99.90;;;9.54;100.00;97275.38;5184989;28;20696;-77
2023/02/24 04:48:41;;;;;;;22.65;20.27;;;8.60;99.90;;;9.52;100.00;97261.63;5174055;28;20210;-77
2023/02/24 04:51:14;;;;;;;21.75;19.40;;;8.60;99.90;;;9.50;100.00;97260.69;5171263;28;20221;-76
2023/02/24 04:53:54;;;;;;;20.92;18.38;;;8.60;99.90;;;9.48;100.00;97258.06;5175839;28;20676;-77
2023/02/24 04:56:28;;;;;;;21.80;19.58;;;8.70;99.90;;;9.47;100.00;97254.66;5174525;28;20198;-78
2023/02/24 04:59:01;;;;;;;23.55;20.88;;;8.70;99.90;;;9.48;100.00;97255.53;5176368;28;20226;-78
2023/02/24 05:01:34;;;;;;;23.20;20.65;;;8.70;99.90;;;9.48;100.00;97247.88;5173504;28;20924;-78
2023/02/24 05:04:08;;;;;;;24.50;21.73;;;8.70;99.90;;;9.48;100.00;97240.22;5172040;28;20943;-77
2023/02/24 05:06:43;;;;;;;25.75;23.02;;;8.70;99.90;;;9.50;100.00;97237.72;5176179;28;20198;-77
2023/02/24 05:09:17;;;;;;;26.90;24.00;;;8.70;99.90;;;9.52;100.00;97243.78;5170633;28;20198;-77
2023/02/24 05:11:52;;;;;;;28.98;25.40;;;8.70;99.90;;;9.53;100.00;97232.78;5173984;28;20225;-78
2023/02/24 05:14:25;;;;;;;30.95;25.90;;;8.70;99.90;;;9.51;100.00;97235.25;5174190;28;20226;-78
2023/02/24 05:16:59;;;;;;;25.27;22.70;;;8.70;99.90;;;9.52;100.00;97233.59;5175691;28;20207;-77
2023/02/24 05:22:23;;;;;;;26.33;23.48;;;8.60;99.90;;;9.50;100.00;97230.97;5175273;28;20210;-77
2023/02/24 05:24:57;;;;;;;28.13;25.05;;;8.60;99.90;;;9.46;100.00;97227.38;5175800;28;20232;-78
2023/02/24 05:27:31;;;;;;;30.50;27.15;;;8.60;99.90;;;9.46;100.00;97224.81;5177189;28;20205;-78
2023/02/24 05:30:08;;;;;;;31.45;26.40;;;8.70;99.90;;;9.47;100.00;97224.03;5176154;28;20213;-77
2023/02/24 05:32:41;;;;;;;29.20;26.08;;;8.70;99.90;;;9.48;100.00;97220.69;5177692;28;20675;-79
2023/02/24 05:35:14;;;;;;;29.30;26.23;;;8.70;99.90;;;9.54;100.00;97214.13;5184010;28;20719;-77
2023/02/24 05:37:47;;;;;;;30.42;25.55;;;8.70;99.90;;;9.57;100.00;97209.19;5179433;28;20218;-77
2023/02/24 05:40:22;;;;;;;31.38;26.13;;;8.70;99.90;;;9.57;100.00;97199.84;5178369;28;20219;-79
2023/02/24 05:43:01;;;;;;;29.88;25.55;;;8.70;99.90;;;9.60;100.00;97205.09;5173424;28;20248;-78
2023/02/24 05:45:34;;;;;;;30.48;25.67;;;8.70;99.90;;;9.60;100.00;97205.09;5172555;28;20206;-77
2023/02/24 05:48:08;;;;;;;27.33;23.98;;;8.60;99.90;;;9.56;100.00;97197.25;5174982;28;20245;-77
2023/02/24 05:50:44;;;;;;;31.80;25.35;;;8.70;99.90;;;9.53;100.00;97199.59;5176766;28;20218;-82
2023/02/24 05:53:18;;;;;;;28.58;24.55;;;8.60;99.90;;;9.51;100.00;97198.69;5181235;28;20267;-83
2023/02/24 05:55:51;;;;;;;32.45;27.05;;;8.70;99.90;;;9.52;100.00;97192.75;5181623;28;20684;-80
2023/02/24 05:58:27;;;;;;;32.33;27.88;;;8.70;99.90;;;9.53;100.00;97197.06;5181248;28;20238;-81
2023/02/24 06:01:05;;;;;;;35.97;28.30;;;8.70;99.90;;;9.50;100.00;97191.81;5185514;28;20276;-79
2023/02/24 06:03:40;;;;;;;34.75;27.77;;;8.70;99.90;;;9.48;100.00;97190.06;5175472;28;20233;-76
2023/02/24 06:06:14;;;;;;;37.50;29.13;;;8.60;99.90;;;9.48;100.00;97184.97;5179429;28;20643;-78
2023/02/24 06:08:50;;;;;;;37.63;29.38;;;8.70;99.90;;;9.53;100.00;97189.41;5173593;28;20206;-78
2023/02/24 06:11:23;;;;;;;35.50;29.88;;;8.60;99.90;;;9.52;100.00;97187.66;5171710;28;20210;-79
2023/02/24 06:13:58;;;;;;;38.03;30.42;;;8.70;99.90;;;9.51;100.00;97183.38;5174942;28;20418;-79
2023/02/24 06:16:31;;;;;;;40.33;30.27;;;8.70;99.90;;;9.50;100.00;97187.59;5173543;28;20216;-81
2023/02/24 06:19:06;;;;;;;34.22;28.20;;;8.60;99.90;;;9.52;100.00;97190.22;5176176;28;20849;-80
2023/02/24 06:21:41;;;;;;;36.25;28.00;;;8.70;99.90;;;9.53;100.00;97182.66;5179501;28;20749;-78
2023/02/24 06:24:17;;;;;;;40.35;31.65;;;8.70;99.90;;;9.54;100.00;97184.41;5180717;28;20240;-79
2023/02/24 06:26:52;;;;;;;40.75;32.70;;;8.70;99.90;;;9.56;100.00;97184.50;5179773;28;20202;-81
2023/02/24 06:29:28;;;;;;;38.25;29.92;;;8.70;99.90;;;9.59;100.00;97184.63;5174739;28;20210;-80
2023/02/24 06:32:07;;;;;;;47.15;33.05;;;8.70;99.90;;;9.53;100.00;97177.56;5173123;28;20210;-79
2023/02/24 06:34:40;;;;;;;44.60;33.03;;;8.70;99.90;;;9.52;100.00;97180.88;5173757;28;20404;-78
2023/02/24 06:37:15;;;;;;;45.33;32.97;;;8.70;99.90;;;9.55;100.00;97172.50;5174468;28;20221;-78
2023/02/24 06:39:48;;;;;;;46.88;35.17;;;8.70;99.90;;;9.59;100.00;97176.97;5176433;28;20222;-81
2023/02/24 06:42:21;;;;;;;50.55;35.42;;;8.70;99.90;;;9.62;100.00;97184.78;5185665;28;20217;-81
2023/02/24 06:44:55;;;;;;;55.08;37.75;;;8.70;99.90;;;9.59;100.00;97172.75;5185694;28;20218;-81
2023/02/24 06:47:29;;;;;;;51.72;37.22;;;8.60;99.90;;;9.58;100.00;97175.22;5184430;28;20678;-82
2023/02/24 06:50:03;;;;;;;50.65;36.90;;;8.70;99.90;;;9.59;100.00;97174.44;5186636;28;20210;-79
2023/02/24 06:52:37;;;;;;;54.15;38.38;;;8.70;99.90;;;9.59;100.00;97176.97;5185345;28;20217;-80
2023/02/24 06:55:24;;;;;;;56.93;37.90;;;8.70;99.90;;;9.59;100.00;97167.66;5185737;28;20226;-81
2023/02/24 06:58:03;;;;;;;54.45;36.17;;;8.70;99.90;;;9.63;100.00;97169.53;5183562;28;20216;-81
2023/02/24 07:00:37;;;;;;;51.60;36.88;;;8.70;99.90;;;9.64;100.00;97170.41;5187240;28;20225;-77
2023/02/24 07:03:16;;;;;;;55.50;36.60;;;8.70;99.90;;;9.66;100.00;97164.59;5180471;28;20238;-82
2023/02/24 07:05:53;;;;;;;50.03;36.15;;;8.70;99.90;;;9.66;100.00;97166.25;5180424;28;20206;-79
2023/02/24 07:08:27;;;;;;;57.00;37.28;;;8.70;99.90;;;9.68;100.00;97169.78;5183211;28;20237;-78
2023/02/24 07:11:00;;;;;;;55.92;35.95;;;8.70;99.90;;;9.69;100.00;97167.28;5184801;28;20313;-80
2023/02/24 07:13:35;;;;;;;57.85;36.92;;;8.70;99.90;;;9.74;100.00;97162.41;5184464;28;20695;-82
2023/02/24 07:16:10;;;;;;;57.33;38.25;;;8.70;99.90;;;9.74;100.00;97162.41;5188447;28;20207;-81
2023/02/24 07:18:47;;;;;;;61.13;39.78;;;8.70;99.90;;;9.71;100.00;97164.81;5181293;28;20679;-82
2023/02/24 07:21:22;;;;;;;58.30;37.35;;;8.70;99.90;;;9.68;100.00;97162.13;5183879;28;20313;-82
2023/02/24 07:23:56;;;;;;;64.80;39.05;;;8.70;99.90;;;9.67;100.00;97162.91;5187364;28;20230;-83
2023/02/24 07:26:31;;;;;;;59.53;38.17;;;8.70;99.90;;;9.66;100.00;97158.59;5187313;28;20210;-83
2023/02/24 07:29:05;;;;;;;63.20;40.20;;;8.70;99.90;;;9.71;100.00;97152.06;5189127;28;20249;-81
2023/02/24 07:31:41;;;;;;;61.75;40.80;;;8.80;99.90;;;9.74;100.00;97147.09;5186145;28;20613;-84
2023/02/24 07:34:22;;;;;;;60.33;38.60;;;8.80;99.90;;;9.67;100.00;97145.03;5191162;28;20222;-80
2023/02/24 07:36:56;;;;;;;61.00;38.30;;;8.80;99.90;;;9.64;100.00;97144.91;5189364;28;20671;-81
2023/02/24 07:39:29;;;;;;;64.97;40.22;;;8.80;99.90;;;9.61;100.00;97145.63;5192122;28;20212;-83
2023/02/24 07:42:03;;;;;;;65.82;39.20;;;8.80;99.90;;;9.69;100.00;97140.91;5186540;28;20613;-80
2023/02/24 07:44:37;;;;;;;63.10;38.47;;;8.80;99.90;;;9.71;100.00;97141.84;5188952;28;20222;-84
2023/02/24 07:47:14;;;;;;;61.10;39.78;;;8.80;99.90;;;9.73;100.00;97140.25;5183901;28;20226;-81
2023/02/24 07:49:48;;;;;;;61.38;38.65;;;8.80;99.90;;;9.72;100.00;97143.59;5181795;28;20236;-83
2023/02/24 07:52:21;;;;;;;66.10;40.28;;;8.80;99.90;;;9.67;100.00;97140.84;5188059;28;20199;-82
2023/02/24 07:54:54;;;;;;;61.83;38.40;;;8.80;99.90;;;9.69;100.00;97144.31;5184580;28;20321;-81
2023/02/24 07:57:28;;;;;;;62.88;39.22;;;8.80;99.90;;;9.69;100.00;97139.22;5182467;28;20211;-83
2023/02/24 08:00:15;;;;;;;63.00;38.78;;;8.80;99.90;;;9.73;100.00;97137.72;5187448;28;20207;-81
2023/02/24 08:02:50;;;;;;;58.72;37.35;;;8.80;99.90;;;9.79;100.00;97138.00;5198300;28;20631;-82
2023/02/24 08:05:24;;;;;;;62.63;39.47;;;8.80;99.90;;;9.76;100.00;97130.19;5184750;28;20225;-85
2023/02/24 08:07:57;;;;;;;61.45;38.80;;;8.80;99.90;;;9.68;100.00;97124.72;5191398;28;20251;-81
2023/02/24 08:10:35;;;;;;;59.35;37.25;;;8.80;99.90;;;9.67;100.00;97129.72;5185919;28;20195;-84
2023/02/24 08:13:10;;;;;;;61.65;38.33;;;8.80;99.90;;;9.73;100.00;97119.84;5186845;28;20545;-81
2023/02/24 08:15:44;;;;;;;64.55;37.78;;;8.80;99.90;;;9.73;100.00;97124.94;5188994;28;20292;-82
2023/02/24 08:18:19;;;;;;;65.10;37.60;;;8.80;99.90;;;9.74;100.00;97116.47;5178609;28;20303;-82
2023/02/24 08:20:52;;;;;;;64.85;36.55;;;8.80;99.90;;;9.75;100.00;97117.34;5179396;28;20233;-84
2023/02/24 08:23:25;;;;;;;62.72;35.63;;;8.80;99.90;;;9.88;100.00;97110.34;5184836;28;20280;-81
2023/02/24 08:26:02;;;;;;;60.30;36.05;;;8.80;99.90;;;9.81;100.00;97112.53;5187468;28;20210;-81
2023/02/24 08:28:35;;;;;;;65.30;35.65;;;8.80;99.90;;;9.92;100.00;97112.25;5186035;28;20222;-80
2023/02/24 08:31:08;;;;;;;61.55;35.25;;;8.80;99.90;;;9.88;100.00;97114.59;5182867;28;20197;-81
2023/02/24 08:33:43;;;;;;;61.65;36.05;;;8.80;99.90;;;9.94;100.00;97112.31;5184447;28;20269;-79
2023/02/24 08:36:20;;;;;;;58.60;35.55;;;8.80;99.90;;;10.00;100.00;97101.53;5185373;28;20839;-80
2023/02/24 08:38:56;;;;;;;55.22;33.92;;;8.80;99.90;;;9.98;100.00;97104.00;5183847;28;20286;-78
2023/02/24 08:41:43;;;;;;;56.35;33.25;;;8.90;99.90;;;9.98;100.00;97100.56;5186332;28;20218;-78
2023/02/24 08:44:19;;;;;;;58.15;34.42;;;9.00;99.90;;;10.07;100.00;97101.91;5187271;28;20219;-80
2023/02/24 08:46:53;;;;;;;59.08;33.90;;;8.90;99.90;;;10.13;100.00;97096.19;5185444;28;20710;-80
2023/02/24 08:49:27;;;;;;;55.67;33.28;;;9.00;99.90;;;10.01;100.00;97095.59;5188109;28;20217;-80
2023/02/24 08:52:01;;;;;;;63.28;37.15;;;9.00;99.90;;;9.99;100.00;97090.44;5186123;28;20601;-81
2023/02/24 08:54:46;;;;;;;64.78;36.50;;;9.00;99.90;;;9.97;100.00;97091.19;5179631;28;20226;-81
2023/02/24 08:57:24;;;;;;;59.85;36.33;;;9.00;99.90;;;10.05;100.00;97087.31;5189312;28;20910;-81
2023/02/24 08:59:57;;;;;;;67.70;35.47;;;9.00;99.90;;;10.10;100.00;97083.25;5187713;28;20237;-84
2023/02/24 09:02:36;;;;;;;62.15;36.38;;;9.00;99.90;;;10.08;100.00;97087.44;5201411;28;20249;-80
2023/02/24 09:05:11;;;;;;;62.53;35.63;;;9.00;99.90;;;10.11;100.00;97078.25;5192698;28;20229;-81
2023/02/24 09:07:53;;;;;;;63.10;36.38;;;9.00;99.90;;;10.08;100.00;97078.09;5187860;28;20855;-83
2023/02/24 09:10:27;;;;;;;65.43;38.08;;;9.00;99.90;;;10.12;100.00;97079.13;5187818;28;20210;-82
2023/02/24 09:13:07;;;;;;;65.25;38.65;;;9.00;99.90;;;10.14;100.00;97074.97;5192608;28;20280;-82
2023/02/24 09:15:43;;;;;;;65.15;36.90;;;9.00;99.90;;;10.12;100.00;97079.97;5191272;28;20298;-80
2023/02/24 09:18:16;;;;;;;68.63;37.38;;;9.10;99.90;;;10.35;100.00;97073.41;5188710;28;20208;-82
2023/02/24 09:21:14;;;;;;;60.97;37.30;;;9.10;99.90;;;10.41;100.00;97071.94;5186898;28;20241;-82
2023/02/24 09:23:48;;;;;;;64.15;36.90;;;9.10;99.90;;;10.27;100.00;97067.09;5197456;28;20224;-83
2023/02/24 09:26:21;;;;;;;64.82;37.88;;;9.20;99.90;;;10.38;100.00;97063.31;5188293;28;20202;-83
2023/02/24 09:28:57;;;;;;;66.57;38.50;;;9.30;99.90;;;10.27;100.00;97066.19;5190144;28;20195;-83
2023/02/24 09:31:46;;;;;;;64.80;38.00;;;9.30;99.90;;;10.31;100.00;97063.88;5194712;28;20204;-83
2023/02/24 09:34:28;;;;;;;60.63;37.20;;;9.30;99.90;;;10.24;100.00;97066.91;5189732;28;20241;-84
2023/02/24 09:37:05;;;;;;;64.05;38.20;;;9.30;99.90;;;10.28;100.00;97068.84;5180235;28;20238;-84
2023/02/24 09:40:37;;;;;;;58.45;35.35;;;9.30;99.90;;;10.18;100.00;97058.97;5194910;28;20221;-82
2023/02/24 09:43:09;;;;;;;57.10;35.40;;;9.30;99.90;;;10.02;100.00;97056.53;5182424;28;20225;-83
2023/02/24 09:45:52;;;;;;;67.07;37.65;;;9.10;99.90;;;9.92;100.00;97056.09;5184455;28;20207;-85
2023/02/24 09:48:42;;;;;;;61.17;36.30;;;9.10;99.90;;;9.99;100.00;97066.59;5192211;28;20237;-83
2023/02/24 09:51:21;;;;;;;68.25;37.88;;;9.10;99.90;;;10.11;100.00;97054.41;5184525;28;20201;-83
2023/02/24 09:54:00;;;;;;;70.32;38.45;;;9.20;99.90;;;10.18;100.00;97050.44;5193407;28;20229;-82
2023/02/24 09:56:41;;;;;;;70.65;39.55;;;9.20;99.90;;;10.20;100.00;97047.16;5185822;28;20225;-83
2023/02/24 09:59:25;;;;;;;66.43;39.03;;;9.20;99.90;;;10.26;100.00;97044.00;5187585;28;20202;-82
2023/02/24 10:02:13;;;;;;;64.75;37.65;;;9.20;99.90;;;10.22;100.00;97040.44;5190736;28;20223;-84
2023/02/24 10:05:05;;;;;;;71.28;38.97;;;9.30;99.90;;;10.25;100.00;97039.69;5193274;28;20240;-85
2023/02/24 10:07:42;;;;;;;65.40;37.35;;;9.30;99.90;;;10.18;100.00;97035.97;5194848;28;20194;-85
2023/02/24 10:10:26;;;;;;;67.15;37.80;;;9.30;99.90;;;10.22;100.00;97030.22;5182670;28;20212;-83
2023/02/24 10:13:13;;;;;;;62.00;36.05;;;9.30;99.90;;;10.40;100.00;97034.44;5188694;28;20198;-85
2023/02/24 10:15:58;;;;;;;67.07;36.95;;;9.40;99.90;;;10.46;100.00;97024.47;5191074;28;20194;-84
2023/02/24 10:18:45;;;;;;;70.78;37.22;;;9.40;99.90;;;10.37;100.00;97020.72;5202799;28;20876;-84
2023/02/24 10:21:29;;;;;;;64.57;36.50;;;9.40;99.90;;;10.29;100.00;97027.16;5195594;28;20261;-85
2023/02/24 10:24:13;;;;;;;63.70;34.85;;;9.40;99.90;;;10.28;100.00;97025.41;5187108;28;20214;-84
2023/02/24 10:26:52;;;;;;;61.28;35.13;;;9.40;99.90;;;10.28;100.00;97025.41;5187287;28;20210;-84
2023/02/24 10:30:02;;;;;;;67.43;38.03;;;9.40;99.90;;;10.42;100.00;97014.94;5186353;28;20211;-85
2023/02/24 10:32:45;;;;;;;62.80;37.00;;;9.50;99.90;;;10.75;100.00;97018.06;5182497;28;20968;-81
2023/02/24 10:35:24;;;;;;;61.97;34.17;;;9.60;99.90;;;10.75;100.00;97024.03;5181977;28;20269;-85
2023/02/24 10:38:04;;;;;;;66.72;36.20;;;9.60;99.90;;;10.69;100.00;97023.78;5180765;28;20206;-82
2023/02/24 10:40:51;;;;;;;56.72;33.95;;;9.70;99.90;;;10.74;100.00;97022.31;5182643;28;20280;-87
2023/02/24 10:43:30;;;;;;;58.17;35.40;;;9.70;99.90;;;10.59;100.00;97021.66;5184883;28;20715;-84
2023/02/24 10:46:15;;;;;;;55.20;34.50;;;9.70;99.90;;;10.67;100.00;97017.72;5185082;28;20202;-85
2023/02/24 10:48:59;;;;;;;56.13;33.33;;;9.60;99.90;;;10.58;100.00;97014.78;5183184;28;20899;-83
2023/02/24 10:51:39;;;;;;;58.33;33.60;;;9.60;99.90;;;10.48;100.00;97018.63;5184875;28;20213;-83
2023/02/24 10:57:14;;;;;;;63.38;35.13;;;9.50;99.90;;;10.46;100.00;97004.03;5180293;28;20215;-84
2023/02/24 11:03:07;;;;;;;57.85;34.95;;;9.50;99.90;;;10.40;100.00;96998.66;5178352;28;20225;-84
2023/02/24 11:06:07;;;;;;;57.05;32.45;;;9.40;99.90;;;10.35;100.00;96990.78;5182804;28;20210;-84